createdAt,value
2019-04-12T00:00:51.367Z,0.00
2019-04-12T00:01:51.339Z,0.00
2019-04-12T00:02:51.316Z,0.00
2019-04-12T00:03:51.295Z,0.00
2019-04-12T00:04:51.315Z,0.00
2019-04-12T00:05:51.256Z,0.00
2019-04-12T00:06:51.234Z,0.00
2019-04-12T00:07:51.213Z,0.00
2019-04-12T00:08:51.210Z,0.00
2019-04-12T00:09:51.173Z,0.00
2019-04-12T00:10:51.160Z,0.00
2019-04-12T00:11:51.135Z,0.00
2019-04-12T00:12:51.113Z,0.00
2019-04-12T00:13:51.098Z,0.00
2019-04-12T00:14:51.085Z,0.00
2019-04-12T00:15:51.054Z,0.00
2019-04-12T00:16:51.043Z,0.00
2019-04-12T00:17:51.017Z,0.00
2019-04-12T00:18:50.996Z,0.00
2019-04-12T00:19:50.973Z,0.00
2019-04-12T00:20:50.951Z,0.00
2019-04-12T00:21:50.940Z,0.00
2019-04-12T00:22:50.914Z,0.00
2019-04-12T00:23:50.892Z,0.00
2019-04-12T00:24:50.879Z,0.00
2019-04-12T00:25:50.854Z,0.00
2019-04-12T00:26:50.841Z,0.00
2019-04-12T00:27:50.815Z,0.00
2019-04-12T00:28:50.893Z,0.00
2019-04-12T00:29:51.660Z,0.00
2019-04-12T00:30:51.429Z,0.00
2019-04-12T00:31:51.477Z,0.00
2019-04-12T00:32:51.706Z,0.00
2019-04-12T00:33:52.989Z,0.00
2019-04-12T00:34:52.957Z,0.00
2019-04-12T00:35:51.609Z,0.00
2019-04-12T00:36:53.160Z,0.00
2019-04-12T00:37:55.503Z,0.00
2019-04-12T00:38:50.595Z,0.00
2019-04-12T00:39:50.568Z,0.00
2019-04-12T00:40:50.550Z,0.00
2019-04-12T00:41:50.526Z,0.00
2019-04-12T00:42:50.506Z,0.00
2019-04-12T00:43:50.502Z,0.00
2019-04-12T00:44:50.466Z,0.00
2019-04-12T00:45:50.445Z,0.00
2019-04-12T00:46:50.425Z,0.00
2019-04-12T00:47:50.406Z,0.00
2019-04-12T00:48:50.386Z,0.00
2019-04-12T00:49:50.365Z,0.00
2019-04-12T00:50:50.345Z,0.00
2019-04-12T00:51:50.324Z,0.00
2019-04-12T00:52:50.305Z,0.00
2019-04-12T00:53:50.285Z,0.00
2019-04-12T00:54:51.247Z,0.00
2019-04-12T00:55:50.241Z,0.00
2019-04-12T00:56:50.221Z,0.00
2019-04-12T00:57:50.202Z,0.00
2019-04-12T00:58:50.184Z,0.00
2019-04-12T00:59:50.162Z,0.00
2019-04-12T01:00:50.143Z,0.00
2019-04-12T01:01:50.121Z,0.00
2019-04-12T01:02:50.108Z,0.00
2019-04-12T01:03:50.083Z,0.00
2019-04-12T01:04:50.059Z,0.00
2019-04-12T01:05:50.040Z,0.00
2019-04-12T01:06:50.022Z,0.00
2019-04-12T01:07:50.556Z,0.00
2019-04-12T01:08:51.851Z,0.00
2019-04-12T01:09:53.172Z,0.00
2019-04-12T01:10:51.030Z,0.00
2019-04-12T01:11:49.918Z,0.00
2019-04-12T01:12:49.897Z,0.00
2019-04-12T01:13:49.879Z,0.00
2019-04-12T01:14:49.858Z,0.00
2019-04-12T01:15:49.838Z,0.00
2019-04-12T01:16:49.821Z,0.00
2019-04-12T01:17:49.797Z,0.00
2019-04-12T01:18:49.779Z,0.00
2019-04-12T01:19:49.761Z,0.00
2019-04-12T01:20:49.751Z,0.00
2019-04-12T01:21:49.719Z,0.00
2019-04-12T01:22:49.697Z,0.00
2019-04-12T01:23:49.676Z,0.00
2019-04-12T01:24:57.317Z,0.00
2019-04-12T01:25:49.639Z,0.00
2019-04-12T01:26:49.615Z,0.00
2019-04-12T01:27:49.596Z,0.00
2019-04-12T01:28:49.579Z,0.00
2019-04-12T01:29:49.554Z,0.00
2019-04-12T01:30:49.533Z,0.00
2019-04-12T01:31:49.513Z,0.00
2019-04-12T01:32:49.495Z,0.00
2019-04-12T01:33:49.471Z,0.00
2019-04-12T01:34:49.457Z,0.00
2019-04-12T01:35:49.432Z,0.00
2019-04-12T01:36:49.409Z,0.00
2019-04-12T01:37:49.396Z,0.00
2019-04-12T01:38:49.376Z,0.00
2019-04-12T01:39:49.352Z,0.00
2019-04-12T01:40:49.330Z,0.00
2019-04-12T01:41:49.311Z,0.00
2019-04-12T01:42:49.293Z,0.00
2019-04-12T01:43:49.269Z,0.00
2019-04-12T01:44:49.248Z,0.00
2019-04-12T01:45:49.232Z,0.00
2019-04-12T01:46:49.208Z,0.00
2019-04-12T01:47:49.187Z,0.00
2019-04-12T01:48:49.167Z,0.00
2019-04-12T01:49:49.149Z,0.00
2019-04-12T01:50:49.127Z,0.00
2019-04-12T01:51:49.108Z,0.00
2019-04-12T01:52:49.087Z,0.00
2019-04-12T01:53:49.068Z,0.00
2019-04-12T01:54:49.045Z,0.00
2019-04-12T01:55:49.025Z,0.00
2019-04-12T01:56:49.004Z,0.00
2019-04-12T01:57:49.008Z,0.00
2019-04-12T01:58:48.965Z,0.00
2019-04-12T01:59:48.947Z,0.00
2019-04-12T02:00:48.942Z,0.00
2019-04-12T02:01:48.903Z,0.00
2019-04-12T02:02:48.883Z,0.00
2019-04-12T02:03:48.871Z,0.00
2019-04-12T02:04:48.841Z,0.00
2019-04-12T02:05:48.830Z,0.00
2019-04-12T02:06:48.800Z,0.00
2019-04-12T02:07:48.786Z,0.00
2019-04-12T02:08:48.767Z,0.00
2019-04-12T02:09:48.748Z,0.00
2019-04-12T02:10:48.728Z,0.00
2019-04-12T02:11:48.701Z,0.00
2019-04-12T02:12:48.680Z,0.00
2019-04-12T02:13:48.659Z,0.00
2019-04-12T02:14:48.638Z,0.00
2019-04-12T02:15:48.625Z,0.00
2019-04-12T02:16:48.599Z,0.00
2019-04-12T02:17:48.577Z,0.00
2019-04-12T02:18:48.569Z,0.00
2019-04-12T02:19:48.543Z,0.00
2019-04-12T02:20:48.518Z,0.00
2019-04-12T02:21:48.499Z,0.00
2019-04-12T02:22:48.477Z,0.00
2019-04-12T02:23:48.456Z,0.00
2019-04-12T02:24:48.433Z,0.00
2019-04-12T02:25:48.425Z,0.00
2019-04-12T02:26:48.395Z,0.00
2019-04-12T02:27:48.376Z,0.00
2019-04-12T02:28:48.355Z,0.00
2019-04-12T02:29:48.338Z,0.00
2019-04-12T02:30:48.313Z,0.00
2019-04-12T02:31:48.293Z,0.00
2019-04-12T02:32:48.289Z,0.00
2019-04-12T02:33:48.261Z,0.00
2019-04-12T02:34:48.228Z,0.00
2019-04-12T02:35:48.233Z,0.00
2019-04-12T02:36:48.188Z,0.00
2019-04-12T02:37:48.179Z,0.00
2019-04-12T02:38:48.156Z,0.00
2019-04-12T02:39:48.131Z,0.00
2019-04-12T02:40:48.111Z,0.00
2019-04-12T02:41:48.101Z,0.00
2019-04-12T02:42:48.066Z,0.00
2019-04-12T02:43:48.059Z,0.00
2019-04-12T02:44:48.025Z,0.00
2019-04-12T02:45:48.019Z,0.00
2019-04-12T02:46:47.985Z,0.00
2019-04-12T02:47:47.962Z,0.00
2019-04-12T02:48:47.943Z,0.00
2019-04-12T02:49:47.923Z,0.00
2019-04-12T02:50:47.901Z,0.00
2019-04-12T02:51:47.880Z,0.00
2019-04-12T02:52:47.863Z,0.00
2019-04-12T02:53:47.854Z,0.00
2019-04-12T02:54:47.819Z,0.00
2019-04-12T02:55:47.795Z,0.00
2019-04-12T02:56:47.812Z,0.00
2019-04-12T02:57:47.754Z,0.00
2019-04-12T02:58:47.735Z,0.00
2019-04-12T02:59:47.714Z,0.00
2019-04-12T03:00:47.704Z,0.00
2019-04-12T03:01:47.672Z,0.00
2019-04-12T03:02:47.652Z,0.00
2019-04-12T03:03:47.630Z,0.00
2019-04-12T03:04:47.622Z,0.00
2019-04-12T03:05:47.590Z,0.00
2019-04-12T03:06:47.580Z,0.00
2019-04-12T03:07:47.548Z,0.00
2019-04-12T03:08:47.533Z,0.00
2019-04-12T03:09:47.513Z,0.00
2019-04-12T03:10:47.497Z,0.00
2019-04-12T03:11:47.469Z,0.00
2019-04-12T03:12:47.449Z,0.00
2019-04-12T03:13:47.428Z,0.00
2019-04-12T03:14:47.403Z,0.00
2019-04-12T03:15:47.389Z,0.00
2019-04-12T03:16:47.369Z,0.00
2019-04-12T03:17:47.357Z,0.00
2019-04-12T03:18:47.328Z,0.00
2019-04-12T03:19:47.303Z,0.00
2019-04-12T03:20:47.291Z,0.00
2019-04-12T03:21:47.261Z,0.00
2019-04-12T03:22:47.243Z,0.00
2019-04-12T03:23:47.225Z,0.00
2019-04-12T03:24:47.200Z,0.00
2019-04-12T03:25:53.373Z,0.00
2019-04-12T03:26:47.161Z,0.00
2019-04-12T03:27:47.135Z,0.00
2019-04-12T03:28:47.124Z,0.00
2019-04-12T03:29:47.096Z,0.00
2019-04-12T03:30:47.161Z,0.00
2019-04-12T03:31:47.108Z,0.00
2019-04-12T03:32:47.034Z,0.00
2019-04-12T03:33:47.016Z,0.00
2019-04-12T03:34:46.998Z,0.00
2019-04-12T03:35:46.974Z,0.00
2019-04-12T03:36:46.983Z,0.00
2019-04-12T03:37:46.941Z,0.00
2019-04-12T03:38:46.911Z,0.00
2019-04-12T03:39:46.888Z,0.00
2019-04-12T03:40:46.866Z,0.00
2019-04-12T03:41:46.849Z,0.00
2019-04-12T03:42:46.824Z,0.00
2019-04-12T03:43:46.805Z,0.00
2019-04-12T03:44:46.788Z,0.00
2019-04-12T03:45:46.768Z,0.00
2019-04-12T03:46:46.742Z,0.00
2019-04-12T03:47:46.724Z,0.00
2019-04-12T03:48:46.702Z,0.00
2019-04-12T03:49:46.684Z,0.00
2019-04-12T03:50:46.659Z,0.00
2019-04-12T03:51:46.644Z,0.00
2019-04-12T03:52:46.621Z,0.00
2019-04-12T03:53:46.600Z,0.00
2019-04-12T03:54:46.577Z,0.00
2019-04-12T03:55:46.558Z,0.00
2019-04-12T03:56:46.539Z,0.00
2019-04-12T03:57:46.516Z,0.00
2019-04-12T03:58:46.502Z,0.00
2019-04-12T03:59:46.483Z,0.00
2019-04-12T04:00:46.456Z,0.00
2019-04-12T04:01:46.437Z,0.00
2019-04-12T04:02:46.416Z,0.00
2019-04-12T04:03:46.393Z,0.00
2019-04-12T04:04:46.374Z,0.00
2019-04-12T04:05:46.349Z,0.00
2019-04-12T04:06:46.332Z,0.00
2019-04-12T04:07:46.316Z,0.00
2019-04-12T04:08:46.289Z,0.00
2019-04-12T04:09:46.285Z,0.00
2019-04-12T04:10:46.256Z,0.00
2019-04-12T04:11:46.228Z,0.00
2019-04-12T04:12:46.214Z,0.00
2019-04-12T04:13:46.187Z,0.00
2019-04-12T04:14:46.169Z,0.00
2019-04-12T04:15:46.143Z,0.00
2019-04-12T04:16:46.139Z,0.00
2019-04-12T04:17:46.108Z,0.00
2019-04-12T04:18:46.081Z,0.00
2019-04-12T04:19:46.059Z,4.00
2019-04-12T04:20:46.045Z,0.00
2019-04-12T04:21:46.022Z,0.00
2019-04-12T04:22:45.998Z,0.00
2019-04-12T04:23:45.979Z,4.00
2019-04-12T04:24:45.966Z,0.00
2019-04-12T04:25:45.931Z,4.00
2019-04-12T04:26:46.049Z,4.00
2019-04-12T04:27:45.896Z,4.00
2019-04-12T04:28:45.868Z,8.00
2019-04-12T04:29:45.850Z,4.00
2019-04-12T04:30:45.829Z,4.00
2019-04-12T04:31:45.809Z,8.00
2019-04-12T04:32:45.787Z,8.00
2019-04-12T04:33:45.766Z,8.00
2019-04-12T04:34:45.742Z,8.00
2019-04-12T04:35:45.737Z,16.00
2019-04-12T04:36:45.708Z,16.00
2019-04-12T04:37:45.686Z,16.00
2019-04-12T04:38:45.660Z,16.00
2019-04-12T04:39:45.639Z,20.00
2019-04-12T04:40:45.619Z,24.00
2019-04-12T04:41:45.605Z,24.00
2019-04-12T04:42:45.584Z,28.00
2019-04-12T04:43:45.564Z,28.00
2019-04-12T04:44:45.535Z,32.00
2019-04-12T04:45:45.522Z,32.00
2019-04-12T04:46:45.493Z,32.00
2019-04-12T04:47:45.474Z,36.00
2019-04-12T04:48:45.451Z,40.00
2019-04-12T04:49:45.435Z,40.00
2019-04-12T04:50:45.410Z,44.00
2019-04-12T04:51:45.391Z,48.00
2019-04-12T04:52:45.367Z,52.00
2019-04-12T04:53:45.353Z,56.00
2019-04-12T04:54:45.325Z,56.00
2019-04-12T04:55:45.306Z,60.00
2019-04-12T04:56:45.284Z,64.00
2019-04-12T04:57:45.260Z,68.00
2019-04-12T04:58:45.238Z,68.00
2019-04-12T04:59:45.218Z,72.00
2019-04-12T05:00:45.203Z,76.00
2019-04-12T05:01:45.183Z,84.00
2019-04-12T05:02:45.159Z,88.00
2019-04-12T05:03:45.136Z,92.00
2019-04-12T05:04:45.114Z,100.00
2019-04-12T05:05:45.093Z,104.00
2019-04-12T05:06:45.080Z,108.00
2019-04-12T05:07:45.054Z,116.00
2019-04-12T05:08:45.029Z,128.00
2019-04-12T05:09:45.013Z,132.00
2019-04-12T05:10:44.983Z,144.00
2019-04-12T05:11:44.966Z,152.00
2019-04-12T05:12:44.963Z,160.00
2019-04-12T05:13:44.927Z,168.00
2019-04-12T05:14:44.904Z,176.00
2019-04-12T05:15:44.883Z,184.00
2019-04-12T05:16:44.868Z,188.00
2019-04-12T05:17:44.841Z,196.00
2019-04-12T05:18:44.819Z,204.00
2019-04-12T05:19:44.800Z,208.00
2019-04-12T05:20:44.778Z,212.00
2019-04-12T05:21:44.755Z,224.00
2019-04-12T05:22:44.732Z,232.00
2019-04-12T05:23:44.719Z,240.00
2019-04-12T05:24:44.693Z,252.00
2019-04-12T05:25:44.668Z,264.00
2019-04-12T05:26:45.692Z,272.00
2019-04-12T05:27:44.629Z,276.00
2019-04-12T05:28:44.607Z,280.00
2019-04-12T05:29:44.593Z,288.00
2019-04-12T05:30:44.565Z,288.00
2019-04-12T05:31:44.547Z,300.00
2019-04-12T05:32:44.521Z,312.00
2019-04-12T05:33:44.506Z,320.00
2019-04-12T05:34:44.487Z,332.00
2019-04-12T05:35:44.467Z,340.00
2019-04-12T05:36:44.441Z,352.00
2019-04-12T05:37:44.420Z,360.00
2019-04-12T05:38:44.396Z,368.00
2019-04-12T05:39:44.388Z,376.00
2019-04-12T05:40:44.363Z,384.00
2019-04-12T05:41:44.339Z,392.00
2019-04-12T05:42:44.311Z,408.00
2019-04-12T05:43:44.291Z,420.00
2019-04-12T05:44:44.273Z,444.00
2019-04-12T05:45:44.249Z,460.00
2019-04-12T05:46:44.226Z,468.00
2019-04-12T05:47:44.206Z,472.00
2019-04-12T05:48:44.186Z,480.00
2019-04-12T05:49:44.166Z,484.00
2019-04-12T05:50:44.140Z,492.00
2019-04-12T05:51:44.121Z,496.00
2019-04-12T05:52:44.102Z,504.00
2019-04-12T05:53:44.079Z,504.00
2019-04-12T05:54:44.058Z,512.00
2019-04-12T05:55:44.039Z,516.00
2019-04-12T05:56:44.016Z,528.00
2019-04-12T05:57:43.998Z,544.00
2019-04-12T05:58:43.974Z,564.00
2019-04-12T05:59:43.961Z,584.00
2019-04-12T06:00:45.764Z,608.00
2019-04-12T06:01:43.911Z,636.00
2019-04-12T06:02:43.893Z,652.00
2019-04-12T06:03:43.879Z,668.00
2019-04-12T06:04:43.851Z,680.00
2019-04-12T06:05:43.828Z,684.00
2019-04-12T06:06:43.807Z,688.00
2019-04-12T06:07:43.787Z,680.00
2019-04-12T06:08:43.772Z,684.00
2019-04-12T06:09:43.743Z,684.00
2019-04-12T06:10:43.723Z,688.00
2019-04-12T06:11:43.705Z,696.00
2019-04-12T06:12:43.681Z,708.00
2019-04-12T06:13:43.659Z,728.00
2019-04-12T06:14:43.683Z,744.00
2019-04-12T06:15:44.307Z,764.00
2019-04-12T06:16:43.598Z,796.00
2019-04-12T06:17:43.586Z,824.00
2019-04-12T06:18:43.553Z,856.00
2019-04-12T06:19:43.535Z,880.00
2019-04-12T06:20:43.513Z,916.00
2019-04-12T06:21:43.492Z,956.00
2019-04-12T06:22:43.470Z,992.00
2019-04-12T06:23:43.449Z,1036.00
2019-04-12T06:24:43.426Z,1072.00
2019-04-12T06:25:43.408Z,1100.00
2019-04-12T06:26:43.385Z,1116.00
2019-04-12T06:27:43.364Z,1136.00
2019-04-12T06:28:43.343Z,1176.00
2019-04-12T06:29:45.104Z,1224.00
2019-04-12T06:30:43.304Z,1280.00
2019-04-12T06:31:43.290Z,1352.00
2019-04-12T06:32:43.262Z,1408.00
2019-04-12T06:33:43.239Z,1440.00
2019-04-12T06:34:43.216Z,1464.00
2019-04-12T06:35:43.197Z,1480.00
2019-04-12T06:36:43.174Z,1520.00
2019-04-12T06:37:43.161Z,1536.00
2019-04-12T06:38:43.134Z,1536.00
2019-04-12T06:39:43.112Z,1556.00
2019-04-12T06:40:43.090Z,1552.00
2019-04-12T06:41:43.077Z,1536.00
2019-04-12T06:42:43.048Z,1512.00
2019-04-12T06:43:43.032Z,1520.00
2019-04-12T06:44:43.005Z,1536.00
2019-04-12T06:45:42.998Z,1564.00
2019-04-12T06:46:42.965Z,1652.00
2019-04-12T06:47:42.943Z,1816.00
2019-04-12T06:48:42.921Z,1952.00
2019-04-12T06:49:42.906Z,2104.00
2019-04-12T06:50:42.880Z,2232.00
2019-04-12T06:51:42.861Z,2392.00
2019-04-12T06:52:42.839Z,2576.00
2019-04-12T06:53:42.819Z,2744.00
2019-04-12T06:54:42.801Z,2868.00
2019-04-12T06:55:42.784Z,2916.00
2019-04-12T06:56:42.755Z,2920.00
2019-04-12T06:57:42.743Z,2936.00
2019-04-12T06:58:42.716Z,2932.00
2019-04-12T06:59:42.691Z,2944.00
2019-04-12T07:00:42.671Z,2924.00
2019-04-12T07:01:42.653Z,2888.00
2019-04-12T07:02:42.638Z,2816.00
2019-04-12T07:03:42.614Z,2780.00
2019-04-12T07:04:42.595Z,2772.00
2019-04-12T07:05:42.576Z,2712.00
2019-04-12T07:06:44.895Z,2764.00
2019-04-12T07:07:42.528Z,3220.00
2019-04-12T07:08:42.508Z,4168.00
2019-04-12T07:09:42.490Z,4240.00
2019-04-12T07:10:42.464Z,4440.00
2019-04-12T07:11:42.446Z,4588.00
2019-04-12T07:12:42.427Z,4788.00
2019-04-12T07:13:42.407Z,5368.00
2019-04-12T07:14:42.389Z,6120.00
2019-04-12T07:15:42.361Z,6184.00
2019-04-12T07:16:42.347Z,5980.00
2019-04-12T07:17:42.326Z,5988.00
2019-04-12T07:18:42.307Z,5964.00
2019-04-12T07:19:42.290Z,5648.00
2019-04-12T07:20:42.260Z,5468.00
2019-04-12T07:21:42.242Z,5356.00
2019-04-12T07:22:42.220Z,5052.00
2019-04-12T07:23:42.201Z,5004.00
2019-04-12T07:24:42.182Z,5168.00
2019-04-12T07:25:42.164Z,5232.00
2019-04-12T07:26:42.138Z,5256.00
2019-04-12T07:27:42.123Z,6420.00
2019-04-12T07:28:42.099Z,6688.00
2019-04-12T07:29:42.080Z,6280.00
2019-04-12T07:30:42.070Z,5924.00
2019-04-12T07:31:42.043Z,5500.00
2019-04-12T07:32:42.065Z,4900.00
2019-04-12T07:33:42.005Z,4276.00
2019-04-12T07:34:41.995Z,3752.00
2019-04-12T07:35:41.964Z,3276.00
2019-04-12T07:36:41.947Z,2988.00
2019-04-12T07:37:41.921Z,2832.00
2019-04-12T07:38:41.901Z,2784.00
2019-04-12T07:39:41.884Z,2716.00
2019-04-12T07:40:41.860Z,2592.00
2019-04-12T07:41:41.845Z,2500.00
2019-04-12T07:42:41.819Z,2480.00
2019-04-12T07:43:41.799Z,2536.00
2019-04-12T07:44:41.779Z,2604.00
2019-04-12T07:45:41.770Z,2620.00
2019-04-12T07:46:41.741Z,2576.00
2019-04-12T07:47:41.725Z,2560.00
2019-04-12T07:48:41.699Z,2540.00
2019-04-12T07:49:41.688Z,2468.00
2019-04-12T07:50:41.674Z,2396.00
2019-04-12T07:51:41.638Z,2348.00
2019-04-12T07:52:41.619Z,2296.00
2019-04-12T07:53:41.606Z,2244.00
2019-04-12T07:54:41.580Z,2232.00
2019-04-12T07:55:41.559Z,2280.00
2019-04-12T07:56:41.538Z,2396.00
2019-04-12T07:57:47.275Z,2552.00
2019-04-12T07:58:41.499Z,2740.00
2019-04-12T07:59:41.481Z,3116.00
2019-04-12T08:00:41.458Z,3724.00
2019-04-12T08:01:41.442Z,4172.00
2019-04-12T08:02:41.421Z,4624.00
2019-04-12T08:03:41.409Z,5012.00
2019-04-12T08:04:41.379Z,5236.00
2019-04-12T08:05:41.359Z,5412.00
2019-04-12T08:06:41.339Z,5496.00
2019-04-12T08:07:41.318Z,5672.00
2019-04-12T08:08:41.304Z,5432.00
2019-04-12T08:09:41.287Z,4908.00
2019-04-12T08:10:41.260Z,4336.00
2019-04-12T08:11:41.251Z,4036.00
2019-04-12T08:12:41.231Z,3892.00
2019-04-12T08:13:41.204Z,3788.00
2019-04-12T08:14:41.180Z,3668.00
2019-04-12T08:15:41.161Z,3508.00
2019-04-12T08:16:41.138Z,3352.00
2019-04-12T08:17:41.124Z,3192.00
2019-04-12T08:18:41.103Z,3096.00
2019-04-12T08:19:41.078Z,3116.00
2019-04-12T08:20:41.065Z,3112.00
2019-04-12T08:21:41.062Z,3228.00
2019-04-12T08:22:41.020Z,3368.00
2019-04-12T08:23:40.999Z,3548.00
2019-04-12T08:24:40.980Z,3884.00
2019-04-12T08:25:40.967Z,4704.00
2019-04-12T08:26:40.945Z,5836.00
2019-04-12T08:27:40.924Z,6264.00
2019-04-12T08:28:40.900Z,6232.00
2019-04-12T08:29:40.914Z,6008.00
2019-04-12T08:30:40.871Z,5556.00
2019-04-12T08:31:40.847Z,5124.00
2019-04-12T08:32:40.822Z,4968.00
2019-04-12T08:33:40.806Z,5280.00
2019-04-12T08:34:40.782Z,6024.00
2019-04-12T08:35:40.761Z,7448.00
2019-04-12T08:36:40.744Z,8176.00
2019-04-12T08:37:40.727Z,7212.00
2019-04-12T08:38:40.721Z,8016.00
2019-04-12T08:39:40.683Z,10600.00
2019-04-12T08:40:40.670Z,14824.00
2019-04-12T08:41:40.646Z,14408.00
2019-04-12T08:42:40.626Z,22880.00
2019-04-12T08:43:40.607Z,29408.00
2019-04-12T08:44:40.593Z,51552.00
2019-04-12T08:45:40.572Z,29920.00
2019-04-12T08:46:40.556Z,13756.00
2019-04-12T08:47:40.537Z,13192.00
2019-04-12T08:48:40.518Z,9564.00
2019-04-12T08:49:40.532Z,6196.00
2019-04-12T08:50:40.499Z,5744.00
2019-04-12T08:51:40.482Z,5740.00
2019-04-12T08:52:40.472Z,5800.00
2019-04-12T08:53:40.432Z,6424.00
2019-04-12T08:54:40.461Z,8708.00
2019-04-12T08:55:40.400Z,23136.00
2019-04-12T08:56:40.383Z,21824.00
2019-04-12T08:57:40.399Z,20512.00
2019-04-12T08:58:40.389Z,43936.00
2019-04-12T08:59:40.328Z,16672.00
2019-04-12T09:00:40.421Z,4840.00
2019-04-12T09:01:40.356Z,3732.00
2019-04-12T09:02:40.408Z,3052.00
2019-04-12T09:03:40.302Z,2572.00
2019-04-12T09:04:40.251Z,2260.00
2019-04-12T09:05:40.948Z,2048.00
2019-04-12T09:06:40.208Z,1872.00
2019-04-12T09:07:40.349Z,1688.00
2019-04-12T09:08:40.171Z,1528.00
2019-04-12T09:09:40.267Z,1404.00
2019-04-12T09:10:40.209Z,1308.00
2019-04-12T09:11:40.175Z,1272.00
2019-04-12T09:12:40.113Z,1308.00
2019-04-12T09:13:40.105Z,1332.00
2019-04-12T09:14:40.058Z,1360.00
2019-04-12T09:15:40.090Z,1372.00
2019-04-12T09:16:40.111Z,1484.00
2019-04-12T09:17:40.092Z,1624.00
2019-04-12T09:18:40.086Z,1716.00
2019-04-12T09:19:39.978Z,1848.00
2019-04-12T09:20:40.048Z,1980.00
2019-04-12T09:21:40.010Z,2128.00
2019-04-12T09:22:40.031Z,2352.00
2019-04-12T09:23:39.996Z,2576.00
2019-04-12T09:24:39.883Z,2928.00
2019-04-12T09:25:39.932Z,3152.00
2019-04-12T09:26:39.949Z,3152.00
2019-04-12T09:27:39.912Z,3300.00
2019-04-12T09:28:39.811Z,3592.00
2019-04-12T09:29:39.817Z,3824.00
2019-04-12T09:30:39.833Z,3636.00
2019-04-12T09:31:39.729Z,3640.00
2019-04-12T09:32:39.709Z,3860.00
2019-04-12T09:33:39.731Z,4180.00
2019-04-12T09:34:39.672Z,4556.00
2019-04-12T09:35:39.649Z,4888.00
2019-04-12T09:36:39.636Z,5228.00
2019-04-12T09:37:39.613Z,5632.00
2019-04-12T09:38:39.595Z,6036.00
2019-04-12T09:39:39.573Z,6320.00
2019-04-12T09:40:39.558Z,6564.00
2019-04-12T09:41:39.538Z,6748.00
2019-04-12T09:42:39.515Z,6980.00
2019-04-12T09:43:39.498Z,7304.00
2019-04-12T09:44:41.744Z,7804.00
2019-04-12T09:45:39.462Z,8488.00
2019-04-12T09:46:39.435Z,8660.00
2019-04-12T09:47:39.415Z,8456.00
2019-04-12T09:48:39.445Z,7560.00
2019-04-12T09:49:39.385Z,5828.00
2019-04-12T09:50:39.361Z,4568.00
2019-04-12T09:51:39.341Z,4048.00
2019-04-12T09:52:39.322Z,3604.00
2019-04-12T09:53:39.318Z,3388.00
2019-04-12T09:54:39.287Z,3264.00
2019-04-12T09:55:39.278Z,3312.00
2019-04-12T09:56:39.245Z,3720.00
2019-04-12T09:57:39.227Z,3972.00
2019-04-12T09:58:39.213Z,3944.00
2019-04-12T09:59:39.190Z,3928.00
2019-04-12T10:00:39.169Z,4608.00
2019-04-12T10:01:39.154Z,5436.00
2019-04-12T10:02:39.133Z,6680.00
2019-04-12T10:03:39.108Z,7768.00
2019-04-12T10:04:39.105Z,8584.00
2019-04-12T10:05:39.080Z,9376.00
2019-04-12T10:06:39.055Z,9988.00
2019-04-12T10:07:39.046Z,10304.00
2019-04-12T10:08:39.019Z,10820.00
2019-04-12T10:09:38.999Z,9468.00
2019-04-12T10:10:38.984Z,8816.00
2019-04-12T10:11:38.964Z,7940.00
2019-04-12T10:12:38.947Z,6716.00
2019-04-12T10:13:38.927Z,5608.00
2019-04-12T10:14:38.917Z,4764.00
2019-04-12T10:15:38.887Z,4064.00
2019-04-12T10:16:38.878Z,3520.00
2019-04-12T10:17:38.875Z,3048.00
2019-04-12T10:18:38.841Z,2660.00
2019-04-12T10:19:38.818Z,2376.00
2019-04-12T10:20:38.797Z,2132.00
2019-04-12T10:21:38.777Z,1968.00
2019-04-12T10:22:38.759Z,1824.00
2019-04-12T10:23:38.742Z,1752.00
2019-04-12T10:24:38.727Z,1768.00
2019-04-12T10:25:38.704Z,1792.00
2019-04-12T10:26:38.682Z,1764.00
2019-04-12T10:27:38.660Z,1736.00
2019-04-12T10:28:49.459Z,1720.00
2019-04-12T10:29:38.626Z,1736.00
2019-04-12T10:30:38.607Z,1800.00
2019-04-12T10:31:38.586Z,1944.00
2019-04-12T10:32:38.565Z,2088.00
2019-04-12T10:33:38.553Z,2280.00
2019-04-12T10:34:38.524Z,2496.00
2019-04-12T10:35:38.524Z,2716.00
2019-04-12T10:36:38.496Z,2952.00
2019-04-12T10:37:38.566Z,3156.00
2019-04-12T10:38:38.529Z,3352.00
2019-04-12T10:39:38.439Z,3532.00
2019-04-12T10:40:38.408Z,3696.00
2019-04-12T10:41:38.393Z,3848.00
2019-04-12T10:42:38.369Z,4004.00
2019-04-12T10:43:38.351Z,4144.00
2019-04-12T10:44:38.336Z,4336.00
2019-04-12T10:45:38.310Z,4556.00
2019-04-12T10:46:38.294Z,4784.00
2019-04-12T10:47:38.269Z,5104.00
2019-04-12T10:48:38.252Z,5560.00
2019-04-12T10:49:38.235Z,6012.00
2019-04-12T10:50:38.211Z,6304.00
2019-04-12T10:51:38.193Z,6304.00
2019-04-12T10:52:38.173Z,6240.00
2019-04-12T10:53:38.154Z,6164.00
2019-04-12T10:54:38.139Z,6096.00
2019-04-12T10:55:38.116Z,6008.00
2019-04-12T10:56:38.102Z,5896.00
2019-04-12T10:57:38.084Z,5744.00
2019-04-12T10:58:38.061Z,5484.00
2019-04-12T10:59:38.038Z,5112.00
2019-04-12T11:00:38.019Z,4808.00
2019-04-12T11:01:38.004Z,4540.00
2019-04-12T11:02:37.979Z,4376.00
2019-04-12T11:03:37.963Z,4300.00
2019-04-12T11:04:37.941Z,4228.00
2019-04-12T11:05:37.919Z,4144.00
2019-04-12T11:06:37.903Z,4024.00
2019-04-12T11:07:37.890Z,3900.00
2019-04-12T11:08:37.875Z,3808.00
2019-04-12T11:09:37.853Z,3760.00
2019-04-12T11:10:37.825Z,3872.00
2019-04-12T11:11:37.813Z,3928.00
2019-04-12T11:12:37.796Z,3988.00
2019-04-12T11:13:37.779Z,3964.00
2019-04-12T11:14:37.762Z,3948.00
2019-04-12T11:15:37.739Z,3920.00
2019-04-12T11:16:37.711Z,3872.00
2019-04-12T11:17:37.703Z,3792.00
2019-04-12T11:18:37.669Z,3692.00
2019-04-12T11:19:37.661Z,3636.00
2019-04-12T11:20:37.629Z,3568.00
2019-04-12T11:21:37.630Z,3464.00
2019-04-12T11:22:37.592Z,3380.00
2019-04-12T11:23:37.572Z,3328.00
2019-04-12T11:24:37.550Z,3324.00
2019-04-12T11:25:37.538Z,3312.00
2019-04-12T11:26:37.515Z,3320.00
2019-04-12T11:27:37.502Z,3308.00
2019-04-12T11:28:37.476Z,3284.00
2019-04-12T11:29:37.456Z,3276.00
2019-04-12T11:30:37.435Z,3260.00
2019-04-12T11:31:37.414Z,3256.00
2019-04-12T11:32:37.407Z,3244.00
2019-04-12T11:33:37.386Z,3256.00
2019-04-12T11:34:37.355Z,3292.00
2019-04-12T11:35:37.340Z,3344.00
2019-04-12T11:36:37.314Z,3396.00
2019-04-12T11:37:37.297Z,3424.00
2019-04-12T11:38:37.275Z,3444.00
2019-04-12T11:39:37.265Z,3468.00
2019-04-12T11:40:37.245Z,3496.00
2019-04-12T11:41:37.218Z,3520.00
2019-04-12T11:42:37.201Z,3552.00
2019-04-12T11:43:37.179Z,3604.00
2019-04-12T11:44:37.158Z,3660.00
2019-04-12T11:45:37.156Z,3736.00
2019-04-12T11:46:37.813Z,3832.00
2019-04-12T11:47:37.109Z,3900.00
2019-04-12T11:48:37.080Z,3968.00
2019-04-12T11:49:37.062Z,4048.00
2019-04-12T11:50:37.041Z,4112.00
2019-04-12T11:51:37.049Z,4168.00
2019-04-12T11:52:37.008Z,4200.00
2019-04-12T11:53:36.983Z,4220.00
2019-04-12T11:54:36.967Z,4224.00
2019-04-12T11:55:36.943Z,4244.00
2019-04-12T11:56:36.925Z,4272.00
2019-04-12T11:57:37.928Z,4300.00
2019-04-12T11:58:48.130Z,4296.00
2019-04-12T11:59:36.862Z,4316.00
2019-04-12T12:00:36.842Z,4360.00
2019-04-12T12:01:36.823Z,4396.00
2019-04-12T12:02:36.815Z,4424.00
2019-04-12T12:03:36.786Z,4460.00
2019-04-12T12:04:36.769Z,4532.00
2019-04-12T12:05:36.744Z,4592.00
2019-04-12T12:06:37.043Z,4668.00
2019-04-12T12:07:49.238Z,4760.00
2019-04-12T12:08:36.692Z,4868.00
2019-04-12T12:09:36.708Z,4948.00
2019-04-12T12:10:36.651Z,5008.00
2019-04-12T12:11:36.631Z,5096.00
2019-04-12T12:12:36.620Z,5184.00
2019-04-12T12:13:36.601Z,5284.00
2019-04-12T12:14:36.596Z,5380.00
2019-04-12T12:15:36.557Z,5464.00
2019-04-12T12:16:36.540Z,5572.00
2019-04-12T12:17:36.515Z,5628.00
2019-04-12T12:18:36.494Z,5636.00
2019-04-12T12:19:36.496Z,5612.00
2019-04-12T12:20:36.458Z,5628.00
2019-04-12T12:21:36.435Z,5652.00
2019-04-12T12:22:36.417Z,5676.00
2019-04-12T12:23:36.405Z,5668.00
2019-04-12T12:24:36.380Z,5704.00
2019-04-12T12:25:36.363Z,5804.00
2019-04-12T12:26:36.339Z,5912.00
2019-04-12T12:27:36.320Z,5976.00
2019-04-12T12:28:36.302Z,6016.00
2019-04-12T12:29:42.184Z,5980.00
2019-04-12T12:30:36.267Z,5832.00
2019-04-12T12:31:36.242Z,5716.00
2019-04-12T12:32:36.241Z,5692.00
2019-04-12T12:33:36.218Z,5792.00
2019-04-12T12:34:36.501Z,5312.00